Current Conditions
Clear
Conditions



Pressure
1007.92 (hPa) - 29.76 (inHG)
Visibility

10.0 (km) - 6.2 (miles)
   Temperature
26  °C
79°F
23  °C
Dewpoint
84  %
 Humidity
   Wind Speed
2  km/h
1  kts
1  mph
0.4  m/s
   Wind Direction
Calm
Due North
   Airport Data
WSSL
Location Seletar 6 km (3.73 mi)
Metar :WSSL 162000Z VRB01KT CAVOK 26/23 Q1008
Wed 17th July 04:00 am
   Raw Metar Info
Raw METAR is the most common format in the world for the transmission of observational weather data. It is highly standardized through the International Civil Aviation Organization (ICAO), which allows it to be understood throughout most of the world.
   API Info
Data Provided by
https://www.checkwx.com/weather/WSSL
   © Info
CSS/SVG/PHP scripts were developed by weather34.com for use in the weather34 template © 2015-2019

Guide Info provided by Metar-Wikipedia